createdAt,value
2022-08-22T00:02:03.903Z,97513.56
2022-08-22T00:02:57.730Z,97508.69
2022-08-22T00:02:58.816Z,97513.34
2022-08-22T00:02:59.185Z,97505.81
2022-08-22T00:03:01.017Z,97503.25
2022-08-22T00:03:01.450Z,97461.66
2022-08-22T00:03:02.740Z,97488.31
2022-08-22T00:04:38.170Z,97512.06
2022-08-22T00:07:13.934Z,97510.25
2022-08-22T00:09:48.954Z,97514.53
2022-08-22T00:12:22.454Z,97510.88
2022-08-22T00:14:54.912Z,97510.41
2022-08-22T00:17:38.061Z,97514.47
2022-08-22T00:20:13.452Z,97510.03
2022-08-22T00:22:47.695Z,97515.81
2022-08-22T00:25:38.477Z,97515.44
2022-08-22T00:28:11.610Z,97520.72
2022-08-22T00:30:51.161Z,97513.69
2022-08-22T00:33:26.744Z,97508.56
2022-08-22T00:36:07.404Z,97515.94
2022-08-22T00:38:39.333Z,97511.94
2022-08-22T00:41:17.054Z,97517.88
2022-08-22T00:44:20.086Z,97513.53
2022-08-22T00:47:13.561Z,97511.34
2022-08-22T00:50:19.734Z,97512.97
2022-08-22T00:53:14.543Z,97524.66
2022-08-22T00:56:10.532Z,97520.50
2022-08-22T00:59:22.806Z,97524.03
2022-08-22T01:01:56.473Z,97517.81
2022-08-22T01:04:40.025Z,97516.25
2022-08-22T01:07:25.852Z,97518.34
2022-08-22T01:10:21.002Z,97509.97
2022-08-22T01:13:16.213Z,97511.75
2022-08-22T01:15:45.855Z,97514.41
2022-08-22T01:18:50.561Z,97506.22
2022-08-22T01:21:58.685Z,97515.06
2022-08-22T01:25:22.459Z,97518.31
2022-08-22T01:28:23.949Z,97515.72
2022-08-22T01:31:30.384Z,97519.63
2022-08-22T01:34:36.633Z,97517.53
2022-08-22T01:37:58.237Z,97519.94
2022-08-22T01:40:58.759Z,97522.22
2022-08-22T01:43:59.583Z,97518.06
2022-08-22T01:46:50.979Z,97515.66
2022-08-22T01:49:25.853Z,97517.44
2022-08-22T01:51:59.542Z,97518.72
2022-08-22T01:54:49.095Z,97520.03
2022-08-22T01:57:17.758Z,97524.69
2022-08-22T01:59:48.810Z,97517.81
2022-08-22T02:02:42.993Z,97517.84
2022-08-22T02:05:23.308Z,97518.50
2022-08-22T02:08:00.604Z,97516.59
2022-08-22T02:10:44.511Z,97515.44
2022-08-22T02:13:26.505Z,97519.63
2022-08-22T02:16:08.209Z,97523.50
2022-08-22T02:18:52.100Z,97515.75
2022-08-22T02:21:27.358Z,97519.75
2022-08-22T02:24:04.025Z,97518.97
2022-08-22T02:26:57.663Z,97517.41
2022-08-22T02:29:35.363Z,97522.56
2022-08-22T02:32:11.693Z,97525.63
2022-08-22T02:34:44.759Z,97523.53
2022-08-22T02:37:19.556Z,97525.13
2022-08-22T02:39:54.854Z,97522.25
2022-08-22T02:42:28.749Z,97527.38
2022-08-22T02:45:04.954Z,97519.84
2022-08-22T02:47:41.181Z,97519.84
2022-08-22T02:50:18.908Z,97519.97
2022-08-22T02:52:58.760Z,97521.25
2022-08-22T02:55:51.348Z,97524.31
2022-08-22T02:58:31.474Z,97519.03
2022-08-22T03:01:23.325Z,97527.72
2022-08-22T03:03:52.774Z,97520.69
2022-08-22T03:06:36.401Z,97519.38
2022-08-22T03:09:21.159Z,97525.31
2022-08-22T03:12:02.126Z,97519.72
2022-08-22T03:14:35.627Z,97528.06
2022-08-22T03:17:11.509Z,97524.69
2022-08-22T03:19:53.140Z,97531.41
2022-08-22T03:22:27.052Z,97530.97
2022-08-22T03:25:01.085Z,97529.19
2022-08-22T03:27:37.869Z,97534.31
2022-08-22T03:30:13.365Z,97529.38
2022-08-22T03:32:56.897Z,97533.03
2022-08-22T03:35:37.978Z,97537.38
2022-08-22T03:38:21.496Z,97541.84
2022-08-22T03:41:11.152Z,97535.94
2022-08-22T03:44:06.436Z,97539.28
2022-08-22T03:46:55.873Z,97533.84
2022-08-22T03:49:59.793Z,97530.34
2022-08-22T03:53:19.293Z,97535.78
2022-08-22T03:56:32.824Z,97540.25
2022-08-22T03:59:35.543Z,97548.59
2022-08-22T04:02:42.792Z,97546.81
2022-08-22T04:05:35.840Z,97540.59
2022-08-22T04:08:30.617Z,97550.50
2022-08-22T04:11:34.264Z,97551.47
2022-08-22T04:14:33.798Z,97542.03
2022-08-22T04:17:32.368Z,97546.00
2022-08-22T04:20:35.563Z,97548.88
2022-08-22T04:23:45.280Z,97545.22
2022-08-22T04:26:17.327Z,97544.91
2022-08-22T04:28:50.907Z,97550.50
2022-08-22T04:31:28.230Z,97548.41
2022-08-22T04:34:00.728Z,97555.63
2022-08-22T04:36:35.902Z,97553.88
2022-08-22T04:39:10.899Z,97552.25
2022-08-22T04:41:49.182Z,97556.25
2022-08-22T04:44:23.804Z,97554.16
2022-08-22T04:47:00.001Z,97556.41
2022-08-22T04:49:36.317Z,97558.94
2022-08-22T04:52:11.715Z,97552.56
2022-08-22T04:54:56.882Z,97559.66
2022-08-22T04:57:33.616Z,97556.69
2022-08-22T05:00:05.327Z,97561.81
2022-08-22T05:02:38.209Z,97567.50
2022-08-22T05:05:13.407Z,97563.59
2022-08-22T05:07:48.210Z,97560.69
2022-08-22T05:10:20.472Z,97562.97
2022-08-22T05:12:55.835Z,97559.34
2022-08-22T05:15:28.050Z,97557.16
2022-08-22T05:18:03.947Z,97558.66
2022-08-22T05:20:32.562Z,97554.50
2022-08-22T05:23:06.342Z,97559.06
2022-08-22T05:25:48.927Z,97557.53
2022-08-22T05:28:26.369Z,97560.88
2022-08-22T05:30:55.755Z,97559.06
2022-08-22T05:33:30.119Z,97559.44
2022-08-22T05:36:03.686Z,97560.63
2022-08-22T05:38:41.467Z,97555.47
2022-08-22T05:41:13.557Z,97564.56
2022-08-22T05:43:45.268Z,97568.69
2022-08-22T05:46:21.039Z,97574.94
2022-08-22T05:49:00.223Z,97579.75
2022-08-22T05:51:36.867Z,97574.81
2022-08-22T05:54:20.164Z,97573.22
2022-08-22T05:56:57.726Z,97569.78
2022-08-22T05:59:30.422Z,97576.84
2022-08-22T06:02:05.355Z,97577.00
2022-08-22T06:04:38.939Z,97583.53
2022-08-22T06:07:13.476Z,97576.63
2022-08-22T06:10:13.870Z,97573.22
2022-08-22T06:12:51.636Z,97581.78
2022-08-22T06:15:24.339Z,97581.47
2022-08-22T06:17:58.408Z,97575.13
2022-08-22T06:20:31.074Z,97591.13
2022-08-22T06:23:02.440Z,97586.72
2022-08-22T06:25:34.144Z,97581.78
2022-08-22T06:28:06.165Z,97577.59
2022-08-22T06:30:36.694Z,97585.81
2022-08-22T06:33:12.354Z,97582.97
2022-08-22T06:36:02.843Z,97577.09
2022-08-22T06:38:36.024Z,97579.88
2022-08-22T06:41:10.706Z,97585.03
2022-08-22T06:43:41.431Z,97586.38
2022-08-22T06:46:11.738Z,97588.38
2022-08-22T06:48:41.350Z,97585.47
2022-08-22T06:51:13.490Z,97580.88
2022-08-22T06:53:48.265Z,97590.31
2022-08-22T06:56:22.911Z,97589.31
2022-08-22T06:58:54.043Z,97589.84
2022-08-22T07:01:29.867Z,97584.13
2022-08-22T07:04:01.692Z,97579.66
2022-08-22T07:06:35.896Z,97581.75
2022-08-22T07:09:07.257Z,97582.47
2022-08-22T07:11:39.439Z,97581.09
2022-08-22T07:14:11.523Z,97590.53
2022-08-22T07:16:43.484Z,97586.03
2022-08-22T07:19:24.963Z,97583.84
2022-08-22T07:21:55.209Z,97584.69
2022-08-22T07:24:27.739Z,97579.75
2022-08-22T07:27:16.046Z,97578.28
2022-08-22T07:29:53.724Z,97580.06
2022-08-22T07:32:27.662Z,97578.31
2022-08-22T07:35:11.319Z,97564.31
2022-08-22T07:37:58.556Z,97558.47
2022-08-22T07:40:34.249Z,97567.34
2022-08-22T07:43:11.998Z,97562.00
2022-08-22T07:45:48.731Z,97555.94
2022-08-22T07:48:26.195Z,97563.53
2022-08-22T07:51:08.073Z,97560.31
2022-08-22T07:53:44.678Z,97556.66
2022-08-22T07:56:18.251Z,97562.81
2022-08-22T07:58:49.242Z,97564.41
2022-08-22T08:01:22.042Z,97558.69
2022-08-22T08:03:55.452Z,97565.16
2022-08-22T08:06:26.447Z,97558.50
2022-08-22T08:08:57.330Z,97563.47
2022-08-22T08:11:29.899Z,97558.34
2022-08-22T08:14:02.719Z,97564.84
2022-08-22T08:16:37.126Z,97556.00
2022-08-22T08:19:05.144Z,97564.25
2022-08-22T08:21:39.162Z,97560.75
2022-08-22T08:24:13.502Z,97561.09
2022-08-22T08:27:06.811Z,97567.19
2022-08-22T08:29:34.387Z,97573.28
2022-08-22T08:32:02.871Z,97570.59
2022-08-22T08:34:34.716Z,97569.97
2022-08-22T08:37:12.791Z,97562.31
2022-08-22T08:39:45.857Z,97569.63
2022-08-22T08:42:57.510Z,97562.00
2022-08-22T08:45:40.491Z,97562.00
2022-08-22T08:48:46.059Z,97560.28
2022-08-22T08:51:29.414Z,97561.56
2022-08-22T08:54:21.915Z,97556.78
2022-08-22T08:56:59.556Z,97556.41
2022-08-22T08:59:44.349Z,97550.56
2022-08-22T09:02:34.814Z,97547.31
2022-08-22T09:05:20.059Z,97558.00
2022-08-22T09:08:18.541Z,97560.75
2022-08-22T09:11:28.305Z,97553.03
2022-08-22T09:14:12.510Z,97552.59
2022-08-22T09:17:02.893Z,97557.41
2022-08-22T09:19:50.463Z,97552.31
2022-08-22T09:23:00.596Z,97561.94
2022-08-22T09:28:30.672Z,97553.56
2022-08-22T09:34:06.499Z,97550.84
2022-08-22T09:36:48.088Z,97545.56
2022-08-22T09:39:19.590Z,97551.09
2022-08-22T09:40:15.957Z,97551.94
2022-08-22T09:42:02.700Z,97546.66
2022-08-22T09:44:41.519Z,97542.56
2022-08-22T09:47:27.685Z,97546.06
2022-08-22T09:50:17.053Z,97539.16
2022-08-22T09:53:00.640Z,97540.94
2022-08-22T09:55:42.031Z,97548.75
2022-08-22T09:58:21.020Z,97539.63
2022-08-22T10:00:56.438Z,97557.19
2022-08-22T10:03:53.692Z,97555.09
2022-08-22T10:06:29.206Z,97565.84
2022-08-22T10:09:04.819Z,97567.72
2022-08-22T10:11:43.339Z,97558.00
2022-08-22T10:14:22.308Z,97550.47
2022-08-22T10:17:08.897Z,97550.78
2022-08-22T10:19:43.577Z,97557.22
2022-08-22T10:22:35.001Z,97564.19
2022-08-22T10:25:28.602Z,97554.97
2022-08-22T10:28:28.544Z,97560.75
2022-08-22T10:31:14.545Z,97562.25
2022-08-22T10:33:49.411Z,97554.25
2022-08-22T10:36:30.967Z,97553.09
2022-08-22T10:39:08.034Z,97550.53
2022-08-22T10:41:59.378Z,97554.72
2022-08-22T10:44:39.887Z,97558.25
2022-08-22T10:47:15.960Z,97552.75
2022-08-22T10:49:51.527Z,97563.19
2022-08-22T10:52:25.540Z,97561.53
2022-08-22T10:55:09.610Z,97557.00
2022-08-22T10:58:00.665Z,97558.63
2022-08-22T11:00:46.190Z,97550.72
2022-08-22T11:03:25.171Z,97566.56
2022-08-22T11:05:58.846Z,97561.59
2022-08-22T11:08:59.951Z,97552.53
2022-08-22T11:11:46.072Z,97559.34
2022-08-22T11:14:45.647Z,97562.03
2022-08-22T11:17:33.213Z,97553.31
2022-08-22T11:20:21.385Z,97564.00
2022-08-22T11:23:08.526Z,97556.75
2022-08-22T11:25:54.075Z,97553.03
2022-08-22T11:28:35.020Z,97550.38
2022-08-22T11:31:10.599Z,97540.25
2022-08-22T11:33:47.203Z,97547.34
2022-08-22T11:36:31.451Z,97552.69
2022-08-22T11:39:18.367Z,97554.78
2022-08-22T11:41:56.115Z,97543.03
2022-08-22T11:44:32.104Z,97540.56
2022-08-22T11:47:08.796Z,97545.34
2022-08-22T11:49:51.985Z,97538.78
2022-08-22T11:52:51.781Z,97541.53
2022-08-22T11:55:34.307Z,97534.88
2022-08-22T11:58:22.348Z,97522.66
2022-08-22T12:01:01.109Z,97521.75
2022-08-22T12:03:58.226Z,97508.91
2022-08-22T12:07:01.945Z,97510.53
2022-08-22T12:09:59.631Z,97510.41
2022-08-22T12:12:48.338Z,97512.28
2022-08-22T12:15:23.562Z,97501.63
2022-08-22T12:18:25.594Z,97506.63
2022-08-22T12:21:12.546Z,97501.72
2022-08-22T12:24:11.322Z,97497.25
2022-08-22T12:26:57.815Z,97497.16
2022-08-22T12:29:40.012Z,97483.06
2022-08-22T12:32:52.399Z,97485.47
2022-08-22T12:35:36.467Z,97483.13
2022-08-22T12:38:27.952Z,97474.63
2022-08-22T12:41:28.518Z,97478.38
2022-08-22T12:44:19.585Z,97468.56
2022-08-22T12:47:04.224Z,97458.44
2022-08-22T12:49:49.753Z,97454.69
2022-08-22T12:52:33.228Z,97461.63
2022-08-22T12:55:24.903Z,97457.69
2022-08-22T12:58:03.617Z,97458.03
2022-08-22T13:00:36.009Z,97455.16
2022-08-22T13:03:09.555Z,97452.75
2022-08-22T13:05:41.254Z,97451.97
2022-08-22T13:08:17.483Z,97448.59
2022-08-22T13:10:48.673Z,97458.03
2022-08-22T13:13:31.764Z,97445.44
2022-08-22T13:16:08.927Z,97454.06
2022-08-22T13:18:48.238Z,97447.00
2022-08-22T13:21:25.956Z,97445.22
2022-08-22T13:24:05.775Z,97453.28
2022-08-22T13:26:49.168Z,97451.91
2022-08-22T13:29:26.074Z,97458.78
2022-08-22T13:32:00.557Z,97472.00
2022-08-22T13:34:40.170Z,97482.97
2022-08-22T13:37:16.910Z,97464.91
2022-08-22T13:39:52.695Z,97467.38
2022-08-22T13:42:30.351Z,97457.06
2022-08-22T13:45:04.617Z,97458.53
2022-08-22T13:47:39.245Z,97473.44
2022-08-22T13:50:14.539Z,97460.75
2022-08-22T13:52:55.027Z,97461.16
2022-08-22T13:55:31.241Z,97460.75
2022-08-22T13:58:07.531Z,97458.91
2022-08-22T14:01:31.113Z,97459.53
2022-08-22T14:04:06.042Z,97463.75
2022-08-22T14:07:14.611Z,97462.56
2022-08-22T14:09:56.034Z,97463.78
2022-08-22T14:12:28.815Z,97473.38
2022-08-22T14:15:06.195Z,97464.59
2022-08-22T14:17:42.438Z,97459.84
2022-08-22T14:20:32.347Z,97457.03
2022-08-22T14:23:05.418Z,97467.88
2022-08-22T14:25:37.479Z,97467.81
2022-08-22T14:28:10.420Z,97476.53
2022-08-22T14:30:58.251Z,97470.16
2022-08-22T14:33:32.460Z,97464.50
2022-08-22T14:36:12.154Z,97463.44
2022-08-22T14:38:48.171Z,97468.59
2022-08-22T14:41:56.403Z,97461.03
2022-08-22T14:44:27.014Z,97468.06
2022-08-22T14:46:59.039Z,97469.22
2022-08-22T14:49:32.741Z,97470.81
2022-08-22T14:52:08.889Z,97468.59
2022-08-22T14:54:38.281Z,97475.84
2022-08-22T14:57:10.551Z,97467.88
2022-08-22T14:59:50.082Z,97469.31
2022-08-22T15:02:26.558Z,97463.19
2022-08-22T15:04:56.673Z,97465.56
2022-08-22T15:07:27.992Z,97469.47
2022-08-22T15:10:01.102Z,97464.19
2022-08-22T15:12:35.264Z,97464.66
2022-08-22T15:15:11.927Z,97464.91
2022-08-22T15:17:44.081Z,97459.47
2022-08-22T15:20:27.766Z,97464.72
2022-08-22T15:22:59.665Z,97468.28
2022-08-22T15:25:33.383Z,97457.78
2022-08-22T15:28:06.795Z,97464.31
2022-08-22T15:30:47.371Z,97456.16
2022-08-22T15:33:22.826Z,97456.88
2022-08-22T15:35:53.127Z,97447.47
2022-08-22T15:38:31.556Z,97453.84
2022-08-22T15:41:31.281Z,97452.66
2022-08-22T15:44:08.567Z,97447.00
2022-08-22T15:46:46.878Z,97450.75
2022-08-22T15:49:28.816Z,97450.81
2022-08-22T15:52:14.530Z,97444.56
2022-08-22T15:55:17.187Z,97453.13
2022-08-22T15:57:53.422Z,97456.69
2022-08-22T16:00:30.230Z,97439.75
2022-08-22T16:03:04.280Z,97439.28
2022-08-22T16:05:44.242Z,97443.34
2022-08-22T16:08:15.858Z,97444.91
2022-08-22T16:10:48.313Z,97430.66
2022-08-22T16:13:34.070Z,97439.78
2022-08-22T16:16:07.055Z,97441.38
2022-08-22T16:19:13.907Z,97448.50
2022-08-22T16:22:15.437Z,97447.75
2022-08-22T16:25:19.364Z,97442.91
2022-08-22T16:27:57.377Z,97437.81
2022-08-22T16:30:39.296Z,97434.66
2022-08-22T16:33:17.683Z,97445.38
2022-08-22T16:36:24.682Z,97451.66
2022-08-22T16:38:58.058Z,97445.75
2022-08-22T16:41:34.647Z,97446.53
2022-08-22T16:44:33.982Z,97452.41
2022-08-22T16:47:13.349Z,97439.38
2022-08-22T16:50:07.679Z,97444.09
2022-08-22T16:52:54.089Z,97446.44
2022-08-22T16:56:05.846Z,97442.78
2022-08-22T16:59:09.909Z,97446.41
2022-08-22T17:02:02.196Z,97440.81
2022-08-22T17:04:40.126Z,97443.56
2022-08-22T17:07:23.079Z,97460.19
2022-08-22T17:10:12.203Z,97452.63
2022-08-22T17:13:08.666Z,97452.56
2022-08-22T17:15:58.221Z,97459.59
2022-08-22T17:18:54.329Z,97452.44
2022-08-22T17:21:26.943Z,97454.78
2022-08-22T17:24:05.081Z,97452.31
2022-08-22T17:26:50.938Z,97453.59
2022-08-22T17:29:35.768Z,97458.66
2022-08-22T17:32:16.391Z,97456.06
2022-08-22T17:34:56.447Z,97458.44
2022-08-22T17:37:39.279Z,97460.06
2022-08-22T17:40:32.949Z,97470.59
2022-08-22T17:43:42.975Z,97475.44
2022-08-22T17:46:35.885Z,97468.91
2022-08-22T17:49:21.831Z,97489.81
2022-08-22T17:51:56.254Z,97490.09
2022-08-22T17:54:34.507Z,97488.41
2022-08-22T17:57:07.999Z,97495.19
2022-08-22T17:59:50.014Z,97491.13
2022-08-22T18:02:26.529Z,97491.16
2022-08-22T18:05:06.166Z,97489.81
2022-08-22T18:07:49.348Z,97495.44
2022-08-22T18:10:25.998Z,97499.75
2022-08-22T18:13:06.220Z,97504.00
2022-08-22T18:15:43.357Z,97503.34
2022-08-22T18:18:25.776Z,97509.13
2022-08-22T18:21:01.916Z,97506.41
2022-08-22T18:23:35.710Z,97508.81
2022-08-22T18:26:19.839Z,97512.78
2022-08-22T18:28:55.369Z,97517.59
2022-08-22T18:31:38.408Z,97519.72
2022-08-22T18:34:16.647Z,97518.28
2022-08-22T18:36:53.243Z,97522.81
2022-08-22T18:39:27.119Z,97526.91
2022-08-22T18:42:03.631Z,97524.59
2022-08-22T18:44:34.416Z,97532.06
2022-08-22T18:47:13.235Z,97534.50
2022-08-22T18:49:48.299Z,97540.75
2022-08-22T18:52:23.063Z,97536.69
2022-08-22T18:55:08.772Z,97542.97
2022-08-22T18:57:57.404Z,97542.31
2022-08-22T19:00:41.240Z,97542.41
2022-08-22T19:03:28.935Z,97553.63
2022-08-22T19:06:15.204Z,97552.22
2022-08-22T19:09:07.898Z,97546.16
2022-08-22T19:11:52.690Z,97542.91
2022-08-22T19:14:43.127Z,97549.94
2022-08-22T19:17:30.651Z,97551.34
2022-08-22T19:20:21.087Z,97555.50
2022-08-22T19:22:53.111Z,97561.94
2022-08-22T19:25:26.870Z,97560.78
2022-08-22T19:28:23.598Z,97563.16
2022-08-22T19:30:52.943Z,97564.84
2022-08-22T19:33:34.445Z,97565.13
2022-08-22T19:36:12.545Z,97571.53
2022-08-22T19:38:58.285Z,97566.75
2022-08-22T19:41:41.465Z,97572.59
2022-08-22T19:44:12.660Z,97575.50
2022-08-22T19:46:43.207Z,97568.00
2022-08-22T19:49:28.350Z,97572.97
2022-08-22T19:52:11.989Z,97570.47
2022-08-22T19:54:50.666Z,97581.31
2022-08-22T19:57:26.674Z,97577.28
2022-08-22T20:00:04.257Z,97577.47
2022-08-22T20:02:40.691Z,97574.19
2022-08-22T20:05:27.097Z,97578.13
2022-08-22T20:08:14.780Z,97575.59
2022-08-22T20:11:01.696Z,97574.38
2022-08-22T20:13:34.501Z,97573.84
2022-08-22T20:16:16.177Z,97575.16
2022-08-22T20:19:26.186Z,97573.91
2022-08-22T20:21:59.906Z,97572.44
2022-08-22T20:24:39.738Z,97578.88
2022-08-22T20:27:15.635Z,97569.81
2022-08-22T20:29:49.856Z,97565.03
2022-08-22T20:32:21.224Z,97572.84
2022-08-22T20:34:55.125Z,97571.91
2022-08-22T20:37:40.146Z,97567.63
2022-08-22T20:40:55.463Z,97572.69
2022-08-22T20:43:24.314Z,97567.09
2022-08-22T20:46:04.872Z,97567.19
2022-08-22T20:48:38.147Z,97571.09
2022-08-22T20:51:07.436Z,97568.84
2022-08-22T20:53:36.499Z,97567.16
2022-08-22T20:56:07.054Z,97570.13
2022-08-22T20:58:40.170Z,97573.22
2022-08-22T21:01:12.362Z,97569.16
2022-08-22T21:03:44.736Z,97571.13
2022-08-22T21:06:15.975Z,97569.53
2022-08-22T21:08:46.211Z,97558.34
2022-08-22T21:11:40.549Z,97553.91
2022-08-22T21:14:24.370Z,97561.00
2022-08-22T21:16:53.152Z,97568.88
2022-08-22T21:19:25.798Z,97567.47
2022-08-22T21:21:54.735Z,97567.16
2022-08-22T21:24:23.011Z,97566.47
2022-08-22T21:26:56.818Z,97555.75
2022-08-22T21:29:30.091Z,97555.53
2022-08-22T21:32:12.490Z,97558.50
2022-08-22T21:34:44.777Z,97559.31
2022-08-22T21:37:16.505Z,97564.56
2022-08-22T21:39:47.419Z,97565.81
2022-08-22T21:42:24.572Z,97558.06
2022-08-22T21:45:00.781Z,97563.63
2022-08-22T21:47:32.494Z,97565.69
2022-08-22T21:50:03.932Z,97569.31
2022-08-22T21:52:34.147Z,97567.59
2022-08-22T21:55:25.434Z,97562.53
2022-08-22T21:58:35.523Z,97562.91
2022-08-22T22:01:28.911Z,97573.59
2022-08-22T22:03:57.817Z,97564.34
2022-08-22T22:06:26.766Z,97578.38
2022-08-22T22:08:55.245Z,97573.59
2022-08-22T22:11:23.803Z,97575.78
2022-08-22T22:13:51.787Z,97572.78
2022-08-22T22:16:26.225Z,97572.63
2022-08-22T22:18:54.241Z,97572.81
2022-08-22T22:21:22.714Z,97579.19
2022-08-22T22:23:51.877Z,97579.19
2022-08-22T22:26:21.083Z,97575.63
2022-08-22T22:28:50.254Z,97590.13
2022-08-22T22:31:20.009Z,97579.41
2022-08-22T22:33:48.001Z,97581.38
2022-08-22T22:36:20.134Z,97574.56
2022-08-22T22:38:49.215Z,97579.13
2022-08-22T22:41:20.321Z,97583.78
2022-08-22T22:43:48.320Z,97581.69
2022-08-22T22:46:16.703Z,97589.03
2022-08-22T22:48:46.139Z,97589.94
2022-08-22T22:51:15.306Z,97576.97
2022-08-22T22:53:44.897Z,97588.16
2022-08-22T22:56:16.190Z,97587.00
2022-08-22T22:58:44.905Z,97586.28
2022-08-22T23:01:16.897Z,97575.81
2022-08-22T23:03:47.346Z,97575.81
2022-08-22T23:06:19.481Z,97585.81
2022-08-22T23:08:48.542Z,97576.88
2022-08-22T23:11:19.725Z,97580.41
2022-08-22T23:13:49.230Z,97585.47
2022-08-22T23:16:22.017Z,97586.63
2022-08-22T23:18:52.203Z,97591.38
2022-08-22T23:21:24.352Z,97589.63
2022-08-22T23:23:54.795Z,97595.28
2022-08-22T23:26:22.854Z,97587.69
2022-08-22T23:28:50.863Z,97590.94
2022-08-22T23:31:29.586Z,97582.88
2022-08-22T23:34:03.297Z,97583.94
2022-08-22T23:36:31.914Z,97583.94
2022-08-22T23:38:59.981Z,97570.75
2022-08-22T23:41:28.303Z,97576.16
2022-08-22T23:43:56.707Z,97575.75
2022-08-22T23:46:27.063Z,97575.09
2022-08-22T23:48:55.351Z,97580.72
2022-08-22T23:51:27.514Z,97584.59
2022-08-22T23:53:57.788Z,97580.31
2022-08-22T23:56:30.060Z,97580.03
2022-08-22T23:58:59.191Z,97581.28
